sensor_id;sensor_type;location;lat;lon;timestamp;temperature;humidity
49413;DHT22;35493;50.276;9.372;2023-04-15T00:00:07;6.90;79.20
49413;DHT22;35493;50.276;9.372;2023-04-15T00:02:41;6.90;79.30
49413;DHT22;35493;50.276;9.372;2023-04-15T00:05:08;6.90;79.20
49413;DHT22;35493;50.276;9.372;2023-04-15T00:07:35;6.90;79.10
49413;DHT22;35493;50.276;9.372;2023-04-15T00:10:03;6.90;79.00
49413;DHT22;35493;50.276;9.372;2023-04-15T00:12:30;6.90;79.10
49413;DHT22;35493;50.276;9.372;2023-04-15T00:14:57;6.80;79.10
49413;DHT22;35493;50.276;9.372;2023-04-15T00:17:24;6.80;79.20
49413;DHT22;35493;50.276;9.372;2023-04-15T00:19:51;6.80;79.20
49413;DHT22;35493;50.276;9.372;2023-04-15T00:22:17;6.80;79.30
49413;DHT22;35493;50.276;9.372;2023-04-15T00:24:44;6.70;79.40
49413;DHT22;35493;50.276;9.372;2023-04-15T00:27:12;6.70;79.70
49413;DHT22;35493;50.276;9.372;2023-04-15T00:29:39;6.70;79.60
49413;DHT22;35493;50.276;9.372;2023-04-15T00:32:06;6.70;79.60
49413;DHT22;35493;50.276;9.372;2023-04-15T00:34:33;6.70;79.80
49413;DHT22;35493;50.276;9.372;2023-04-15T00:37:00;6.70;79.90
49413;DHT22;35493;50.276;9.372;2023-04-15T00:39:27;6.70;80.00
49413;DHT22;35493;50.276;9.372;2023-04-15T00:41:54;6.70;80.00
49413;DHT22;35493;50.276;9.372;2023-04-15T00:44:23;6.70;80.00
49413;DHT22;35493;50.276;9.372;2023-04-15T00:46:50;6.70;80.10
49413;DHT22;35493;50.276;9.372;2023-04-15T00:49:17;6.60;80.00
49413;DHT22;35493;50.276;9.372;2023-04-15T00:51:44;6.60;80.10
49413;DHT22;35493;50.276;9.372;2023-04-15T00:54:11;6.50;80.30
49413;DHT22;35493;50.276;9.372;2023-04-15T00:56:39;6.50;80.30
49413;DHT22;35493;50.276;9.372;2023-04-15T00:59:06;6.50;80.40
49413;DHT22;35493;50.276;9.372;2023-04-15T01:01:35;6.60;80.60
49413;DHT22;35493;50.276;9.372;2023-04-15T01:04:02;6.50;80.70
49413;DHT22;35493;50.276;9.372;2023-04-15T01:06:30;6.50;80.90
49413;DHT22;35493;50.276;9.372;2023-04-15T01:08:57;6.50;81.00
49413;DHT22;35493;50.276;9.372;2023-04-15T01:11:24;6.50;81.00
49413;DHT22;35493;50.276;9.372;2023-04-15T01:13:51;6.40;81.10
49413;DHT22;35493;50.276;9.372;2023-04-15T01:16:18;6.40;81.20
49413;DHT22;35493;50.276;9.372;2023-04-15T01:18:47;6.30;81.20
49413;DHT22;35493;50.276;9.372;2023-04-15T01:21:14;6.30;81.20
49413;DHT22;35493;50.276;9.372;2023-04-15T01:23:40;6.30;81.30
49413;DHT22;35493;50.276;9.372;2023-04-15T01:26:11;6.30;81.30
49413;DHT22;35493;50.276;9.372;2023-04-15T01:28:38;6.30;81.10
49413;DHT22;35493;50.276;9.372;2023-04-15T01:31:05;6.30;81.00
49413;DHT22;35493;50.276;9.372;2023-04-15T01:33:36;6.30;81.10
49413;DHT22;35493;50.276;9.372;2023-04-15T01:36:03;6.20;81.20
49413;DHT22;35493;50.276;9.372;2023-04-15T01:38:30;6.20;81.30
49413;DHT22;35493;50.276;9.372;2023-04-15T01:40:57;6.20;81.20
49413;DHT22;35493;50.276;9.372;2023-04-15T01:43:26;6.20;81.20
49413;DHT22;35493;50.276;9.372;2023-04-15T01:45:53;6.20;81.20
49413;DHT22;35493;50.276;9.372;2023-04-15T01:48:20;6.20;81.30
49413;DHT22;35493;50.276;9.372;2023-04-15T01:50:47;6.20;81.40
49413;DHT22;35493;50.276;9.372;2023-04-15T01:53:13;6.20;81.40
49413;DHT22;35493;50.276;9.372;2023-04-15T01:55:41;6.20;81.70
49413;DHT22;35493;50.276;9.372;2023-04-15T01:58:08;6.20;81.70
49413;DHT22;35493;50.276;9.372;2023-04-15T02:00:36;6.20;81.70
49413;DHT22;35493;50.276;9.372;2023-04-15T02:03:02;6.10;81.70
49413;DHT22;35493;50.276;9.372;2023-04-15T02:05:29;6.10;81.70
49413;DHT22;35493;50.276;9.372;2023-04-15T02:07:56;6.10;81.50
49413;DHT22;35493;50.276;9.372;2023-04-15T02:10:23;6.10;81.60
49413;DHT22;35493;50.276;9.372;2023-04-15T02:12:50;6.10;81.60
49413;DHT22;35493;50.276;9.372;2023-04-15T02:15:16;6.10;81.60
49413;DHT22;35493;50.276;9.372;2023-04-15T02:17:45;6.00;81.70
49413;DHT22;35493;50.276;9.372;2023-04-15T02:20:15;6.10;81.70
49413;DHT22;35493;50.276;9.372;2023-04-15T02:22:42;6.10;81.70
49413;DHT22;35493;50.276;9.372;2023-04-15T02:25:08;6.10;81.60
49413;DHT22;35493;50.276;9.372;2023-04-15T02:27:36;6.10;81.70
49413;DHT22;35493;50.276;9.372;2023-04-15T02:30:03;6.10;81.60
49413;DHT22;35493;50.276;9.372;2023-04-15T02:32:29;6.10;81.60
49413;DHT22;35493;50.276;9.372;2023-04-15T02:34:58;6.10;81.70
49413;DHT22;35493;50.276;9.372;2023-04-15T02:37:28;6.10;81.70
49413;DHT22;35493;50.276;9.372;2023-04-15T02:39:56;6.10;81.80
49413;DHT22;35493;50.276;9.372;2023-04-15T02:42:23;6.00;81.90
49413;DHT22;35493;50.276;9.372;2023-04-15T02:44:53;6.00;81.90
49413;DHT22;35493;50.276;9.372;2023-04-15T02:47:22;6.00;82.00
49413;DHT22;35493;50.276;9.372;2023-04-15T02:49:48;6.00;82.20
49413;DHT22;35493;50.276;9.372;2023-04-15T02:52:16;6.00;82.30
49413;DHT22;35493;50.276;9.372;2023-04-15T02:54:43;6.10;82.20
49413;DHT22;35493;50.276;9.372;2023-04-15T02:57:10;6.00;82.20
49413;DHT22;35493;50.276;9.372;2023-04-15T02:59:37;6.00;82.20
49413;DHT22;35493;50.276;9.372;2023-04-15T03:02:04;6.00;82.20
49413;DHT22;35493;50.276;9.372;2023-04-15T03:04:32;6.00;82.30
49413;DHT22;35493;50.276;9.372;2023-04-15T03:06:59;6.00;82.40
49413;DHT22;35493;50.276;9.372;2023-04-15T03:09:27;5.90;82.70
49413;DHT22;35493;50.276;9.372;2023-04-15T03:11:55;5.90;82.90
49413;DHT22;35493;50.276;9.372;2023-04-15T03:14:22;5.90;82.90
49413;DHT22;35493;50.276;9.372;2023-04-15T03:16:50;5.90;82.90
49413;DHT22;35493;50.276;9.372;2023-04-15T03:19:17;5.90;82.90
49413;DHT22;35493;50.276;9.372;2023-04-15T03:21:44;5.90;82.80
49413;DHT22;35493;50.276;9.372;2023-04-15T03:24:11;6.00;83.00
49413;DHT22;35493;50.276;9.372;2023-04-15T03:26:39;5.90;83.20
49413;DHT22;35493;50.276;9.372;2023-04-15T03:29:11;5.80;83.30
49413;DHT22;35493;50.276;9.372;2023-04-15T03:31:39;5.90;83.20
49413;DHT22;35493;50.276;9.372;2023-04-15T03:34:05;5.90;83.10
49413;DHT22;35493;50.276;9.372;2023-04-15T03:36:32;5.90;83.10
49413;DHT22;35493;50.276;9.372;2023-04-15T03:38:59;5.90;83.00
49413;DHT22;35493;50.276;9.372;2023-04-15T03:41:26;5.90;83.00
49413;DHT22;35493;50.276;9.372;2023-04-15T03:43:55;5.90;82.90
49413;DHT22;35493;50.276;9.372;2023-04-15T03:46:21;5.90;83.00
49413;DHT22;35493;50.276;9.372;2023-04-15T03:48:48;5.90;83.00
49413;DHT22;35493;50.276;9.372;2023-04-15T03:51:15;5.90;83.00
49413;DHT22;35493;50.276;9.372;2023-04-15T03:53:42;5.90;83.10
49413;DHT22;35493;50.276;9.372;2023-04-15T03:56:09;5.80;83.20
49413;DHT22;35493;50.276;9.372;2023-04-15T03:58:35;5.80;83.40
49413;DHT22;35493;50.276;9.372;2023-04-15T04:01:04;5.80;83.30
49413;DHT22;35493;50.276;9.372;2023-04-15T04:03:30;5.80;83.30
49413;DHT22;35493;50.276;9.372;2023-04-15T04:05:57;5.80;83.20
49413;DHT22;35493;50.276;9.372;2023-04-15T04:08:24;5.80;83.10
49413;DHT22;35493;50.276;9.372;2023-04-15T04:10:51;5.80;83.00
49413;DHT22;35493;50.276;9.372;2023-04-15T04:13:18;5.80;83.00
49413;DHT22;35493;50.276;9.372;2023-04-15T04:15:45;5.80;83.00
49413;DHT22;35493;50.276;9.372;2023-04-15T04:18:13;5.80;83.10
49413;DHT22;35493;50.276;9.372;2023-04-15T04:20:40;5.80;83.00
49413;DHT22;35493;50.276;9.372;2023-04-15T04:23:07;5.80;83.00
49413;DHT22;35493;50.276;9.372;2023-04-15T04:25:33;5.70;83.10
49413;DHT22;35493;50.276;9.372;2023-04-15T04:28:00;5.80;83.10
49413;DHT22;35493;50.276;9.372;2023-04-15T04:30:27;5.70;83.20
49413;DHT22;35493;50.276;9.372;2023-04-15T04:32:54;5.80;83.20
49413;DHT22;35493;50.276;9.372;2023-04-15T04:35:22;5.70;83.20
49413;DHT22;35493;50.276;9.372;2023-04-15T04:37:49;5.70;83.30
49413;DHT22;35493;50.276;9.372;2023-04-15T04:40:16;5.70;83.30
49413;DHT22;35493;50.276;9.372;2023-04-15T04:42:43;5.70;83.40
49413;DHT22;35493;50.276;9.372;2023-04-15T04:45:10;5.70;83.40
49413;DHT22;35493;50.276;9.372;2023-04-15T04:47:37;5.70;83.30
49413;DHT22;35493;50.276;9.372;2023-04-15T04:50:05;5.70;83.30
49413;DHT22;35493;50.276;9.372;2023-04-15T04:52:33;5.80;83.40
49413;DHT22;35493;50.276;9.372;2023-04-15T04:55:00;5.80;83.50
49413;DHT22;35493;50.276;9.372;2023-04-15T04:57:26;5.70;83.60
49413;DHT22;35493;50.276;9.372;2023-04-15T04:59:53;5.70;83.80
49413;DHT22;35493;50.276;9.372;2023-04-15T05:02:20;5.70;83.70
49413;DHT22;35493;50.276;9.372;2023-04-15T05:04:47;5.80;83.70
49413;DHT22;35493;50.276;9.372;2023-04-15T05:07:14;5.80;83.50
49413;DHT22;35493;50.276;9.372;2023-04-15T05:09:42;5.90;83.60
49413;DHT22;35493;50.276;9.372;2023-04-15T05:12:09;5.90;83.60
49413;DHT22;35493;50.276;9.372;2023-04-15T05:14:39;5.80;83.60
49413;DHT22;35493;50.276;9.372;2023-04-15T05:17:06;5.80;83.60
49413;DHT22;35493;50.276;9.372;2023-04-15T05:19:32;5.90;83.70
49413;DHT22;35493;50.276;9.372;2023-04-15T05:21:59;5.90;83.70
49413;DHT22;35493;50.276;9.372;2023-04-15T05:24:26;5.90;83.80
49413;DHT22;35493;50.276;9.372;2023-04-15T05:26:54;5.90;83.80
49413;DHT22;35493;50.276;9.372;2023-04-15T05:29:21;5.90;83.80
49413;DHT22;35493;50.276;9.372;2023-04-15T05:31:48;6.00;83.80
49413;DHT22;35493;50.276;9.372;2023-04-15T05:34:15;6.00;83.80
49413;DHT22;35493;50.276;9.372;2023-04-15T05:36:42;6.00;83.90
49413;DHT22;35493;50.276;9.372;2023-04-15T05:39:08;6.00;83.60
49413;DHT22;35493;50.276;9.372;2023-04-15T05:41:35;6.00;83.60
49413;DHT22;35493;50.276;9.372;2023-04-15T05:44:04;6.00;83.50
49413;DHT22;35493;50.276;9.372;2023-04-15T05:46:30;6.10;83.50
49413;DHT22;35493;50.276;9.372;2023-04-15T05:48:57;6.10;83.60
49413;DHT22;35493;50.276;9.372;2023-04-15T05:51:24;6.10;83.60
49413;DHT22;35493;50.276;9.372;2023-04-15T05:53:51;6.10;83.60
49413;DHT22;35493;50.276;9.372;2023-04-15T05:56:18;6.10;83.70
49413;DHT22;35493;50.276;9.372;2023-04-15T05:58:45;6.10;83.90
49413;DHT22;35493;50.276;9.372;2023-04-15T06:01:13;6.10;84.00
49413;DHT22;35493;50.276;9.372;2023-04-15T06:03:40;6.10;84.00
49413;DHT22;35493;50.276;9.372;2023-04-15T06:06:07;6.10;84.00
49413;DHT22;35493;50.276;9.372;2023-04-15T06:08:34;6.20;84.00
49413;DHT22;35493;50.276;9.372;2023-04-15T06:11:01;6.20;84.10
49413;DHT22;35493;50.276;9.372;2023-04-15T06:13:27;6.20;84.00
49413;DHT22;35493;50.276;9.372;2023-04-15T06:15:54;6.20;84.00
49413;DHT22;35493;50.276;9.372;2023-04-15T06:18:22;6.20;83.90
49413;DHT22;35493;50.276;9.372;2023-04-15T06:20:49;6.30;83.90
49413;DHT22;35493;50.276;9.372;2023-04-15T06:23:16;6.30;83.90
49413;DHT22;35493;50.276;9.372;2023-04-15T06:25:43;6.30;84.00
49413;DHT22;35493;50.276;9.372;2023-04-15T06:28:10;6.40;83.90
49413;DHT22;35493;50.276;9.372;2023-04-15T06:30:36;6.40;83.90
49413;DHT22;35493;50.276;9.372;2023-04-15T06:33:04;6.40;84.10
49413;DHT22;35493;50.276;9.372;2023-04-15T06:35:33;6.40;84.00
49413;DHT22;35493;50.276;9.372;2023-04-15T06:37:59;6.40;83.90
49413;DHT22;35493;50.276;9.372;2023-04-15T06:40:26;6.40;84.00
49413;DHT22;35493;50.276;9.372;2023-04-15T06:42:53;6.50;83.80
49413;DHT22;35493;50.276;9.372;2023-04-15T06:45:20;6.60;83.70
49413;DHT22;35493;50.276;9.372;2023-04-15T06:47:47;6.60;83.60
49413;DHT22;35493;50.276;9.372;2023-04-15T06:50:13;6.70;83.60
49413;DHT22;35493;50.276;9.372;2023-04-15T06:52:41;6.70;83.50
49413;DHT22;35493;50.276;9.372;2023-04-15T06:55:08;6.70;83.60
49413;DHT22;35493;50.276;9.372;2023-04-15T06:57:35;6.80;83.50
49413;DHT22;35493;50.276;9.372;2023-04-15T07:00:02;6.80;83.00
49413;DHT22;35493;50.276;9.372;2023-04-15T07:02:30;6.80;83.40
49413;DHT22;35493;50.276;9.372;2023-04-15T07:04:56;6.90;83.50
49413;DHT22;35493;50.276;9.372;2023-04-15T07:07:23;7.00;83.50
49413;DHT22;35493;50.276;9.372;2023-04-15T07:09:52;7.00;83.20
49413;DHT22;35493;50.276;9.372;2023-04-15T07:12:19;7.00;83.00
49413;DHT22;35493;50.276;9.372;2023-04-15T07:14:45;7.00;82.90
49413;DHT22;35493;50.276;9.372;2023-04-15T07:17:12;7.00;83.20
49413;DHT22;35493;50.276;9.372;2023-04-15T07:19:39;7.10;82.90
49413;DHT22;35493;50.276;9.372;2023-04-15T07:22:06;7.10;82.60
49413;DHT22;35493;50.276;9.372;2023-04-15T07:24:33;7.20;83.00
49413;DHT22;35493;50.276;9.372;2023-04-15T07:27:01;7.20;82.90
49413;DHT22;35493;50.276;9.372;2023-04-15T07:29:28;7.20;83.10
49413;DHT22;35493;50.276;9.372;2023-04-15T07:31:55;7.30;83.10
49413;DHT22;35493;50.276;9.372;2023-04-15T07:34:22;7.30;83.40
49413;DHT22;35493;50.276;9.372;2023-04-15T07:36:50;7.40;83.30
49413;DHT22;35493;50.276;9.372;2023-04-15T07:39:17;7.50;83.20
49413;DHT22;35493;50.276;9.372;2023-04-15T07:41:46;7.50;83.30
49413;DHT22;35493;50.276;9.372;2023-04-15T07:44:22;7.50;83.30
49413;DHT22;35493;50.276;9.372;2023-04-15T07:46:49;7.60;83.30
49413;DHT22;35493;50.276;9.372;2023-04-15T07:49:17;7.60;83.20
49413;DHT22;35493;50.276;9.372;2023-04-15T07:51:45;7.60;82.60
49413;DHT22;35493;50.276;9.372;2023-04-15T07:54:13;7.60;83.00
49413;DHT22;35493;50.276;9.372;2023-04-15T07:56:40;7.70;82.90
49413;DHT22;35493;50.276;9.372;2023-04-15T07:59:06;7.70;82.90
49413;DHT22;35493;50.276;9.372;2023-04-15T08:01:35;7.80;82.90
49413;DHT22;35493;50.276;9.372;2023-04-15T08:04:03;7.90;82.80
49413;DHT22;35493;50.276;9.372;2023-04-15T08:06:30;8.10;82.70
49413;DHT22;35493;50.276;9.372;2023-04-15T08:08:57;8.10;82.70
49413;DHT22;35493;50.276;9.372;2023-04-15T08:11:24;8.20;82.60
49413;DHT22;35493;50.276;9.372;2023-04-15T08:13:51;8.30;82.90
49413;DHT22;35493;50.276;9.372;2023-04-15T08:16:18;8.40;83.00
49413;DHT22;35493;50.276;9.372;2023-04-15T08:18:47;8.40;82.70
49413;DHT22;35493;50.276;9.372;2023-04-15T08:21:13;8.50;82.40
49413;DHT22;35493;50.276;9.372;2023-04-15T08:23:40;8.60;82.60
49413;DHT22;35493;50.276;9.372;2023-04-15T08:26:07;8.60;82.80
49413;DHT22;35493;50.276;9.372;2023-04-15T08:28:34;8.70;82.80
49413;DHT22;35493;50.276;9.372;2023-04-15T08:31:01;8.70;82.60
49413;DHT22;35493;50.276;9.372;2023-04-15T08:33:28;8.70;82.70
49413;DHT22;35493;50.276;9.372;2023-04-15T08:35:56;8.80;82.60
49413;DHT22;35493;50.276;9.372;2023-04-15T08:38:23;8.90;82.50
49413;DHT22;35493;50.276;9.372;2023-04-15T08:40:50;8.90;82.40
49413;DHT22;35493;50.276;9.372;2023-04-15T08:43:20;8.90;82.10
49413;DHT22;35493;50.276;9.372;2023-04-15T08:45:49;9.00;82.00
49413;DHT22;35493;50.276;9.372;2023-04-15T08:48:16;9.00;82.00
49413;DHT22;35493;50.276;9.372;2023-04-15T08:50:43;9.10;81.80
49413;DHT22;35493;50.276;9.372;2023-04-15T08:53:11;9.20;81.50
49413;DHT22;35493;50.276;9.372;2023-04-15T08:55:41;9.20;81.10
49413;DHT22;35493;50.276;9.372;2023-04-15T08:58:09;9.40;79.90
49413;DHT22;35493;50.276;9.372;2023-04-15T09:00:36;9.50;79.20
49413;DHT22;35493;50.276;9.372;2023-04-15T09:03:03;9.60;78.80
49413;DHT22;35493;50.276;9.372;2023-04-15T09:05:31;9.60;78.50
49413;DHT22;35493;50.276;9.372;2023-04-15T09:07:58;9.60;78.30
49413;DHT22;35493;50.276;9.372;2023-04-15T09:10:26;9.60;77.90
49413;DHT22;35493;50.276;9.372;2023-04-15T09:12:53;9.70;77.50
49413;DHT22;35493;50.276;9.372;2023-04-15T09:15:20;9.60;77.40
49413;DHT22;35493;50.276;9.372;2023-04-15T09:17:48;9.60;77.70
49413;DHT22;35493;50.276;9.372;2023-04-15T09:20:15;9.60;77.90
49413;DHT22;35493;50.276;9.372;2023-04-15T09:22:43;9.60;78.30
49413;DHT22;35493;50.276;9.372;2023-04-15T09:25:28;9.60;78.40
49413;DHT22;35493;50.276;9.372;2023-04-15T09:27:56;9.60;78.70
49413;DHT22;35493;50.276;9.372;2023-04-15T09:30:23;9.60;78.90
49413;DHT22;35493;50.276;9.372;2023-04-15T09:32:50;9.60;78.80
49413;DHT22;35493;50.276;9.372;2023-04-15T09:35:17;9.60;79.20
49413;DHT22;35493;50.276;9.372;2023-04-15T09:37:44;9.70;79.50
49413;DHT22;35493;50.276;9.372;2023-04-15T09:40:11;9.70;80.00
49413;DHT22;35493;50.276;9.372;2023-04-15T09:45:47;9.70;80.60
49413;DHT22;35493;50.276;9.372;2023-04-15T09:48:15;9.70;80.90
49413;DHT22;35493;50.276;9.372;2023-04-15T09:50:42;9.60;81.20
49413;DHT22;35493;50.276;9.372;2023-04-15T09:53:09;9.60;81.30
49413;DHT22;35493;50.276;9.372;2023-04-15T09:55:36;9.60;82.00
49413;DHT22;35493;50.276;9.372;2023-04-15T09:58:07;9.60;82.20
49413;DHT22;35493;50.276;9.372;2023-04-15T10:00:34;9.50;82.30
49413;DHT22;35493;50.276;9.372;2023-04-15T10:03:03;9.60;82.50
49413;DHT22;35493;50.276;9.372;2023-04-15T10:05:31;9.60;82.60
49413;DHT22;35493;50.276;9.372;2023-04-15T10:07:58;9.60;82.70
49413;DHT22;35493;50.276;9.372;2023-04-15T10:10:26;9.60;82.90
49413;DHT22;35493;50.276;9.372;2023-04-15T10:12:52;9.50;83.10
49413;DHT22;35493;50.276;9.372;2023-04-15T10:15:20;9.50;83.30
49413;DHT22;35493;50.276;9.372;2023-04-15T10:17:47;9.50;82.80
49413;DHT22;35493;50.276;9.372;2023-04-15T10:20:17;9.40;83.30
49413;DHT22;35493;50.276;9.372;2023-04-15T10:22:45;9.40;83.90
49413;DHT22;35493;50.276;9.372;2023-04-15T10:25:12;9.40;84.20
49413;DHT22;35493;50.276;9.372;2023-04-15T10:27:40;9.40;84.20
49413;DHT22;35493;50.276;9.372;2023-04-15T10:30:07;9.40;84.40
49413;DHT22;35493;50.276;9.372;2023-04-15T10:32:34;9.40;84.30
49413;DHT22;35493;50.276;9.372;2023-04-15T10:35:01;9.50;84.20
49413;DHT22;35493;50.276;9.372;2023-04-15T10:37:34;9.50;84.00
49413;DHT22;35493;50.276;9.372;2023-04-15T10:42:43;9.60;83.70
49413;DHT22;35493;50.276;9.372;2023-04-15T10:45:14;9.70;83.60
49413;DHT22;35493;50.276;9.372;2023-04-15T10:47:41;9.70;83.70
49413;DHT22;35493;50.276;9.372;2023-04-15T10:50:08;9.70;83.30
49413;DHT22;35493;50.276;9.372;2023-04-15T10:52:38;9.80;83.20
49413;DHT22;35493;50.276;9.372;2023-04-15T10:55:11;9.90;83.30
49413;DHT22;35493;50.276;9.372;2023-04-15T10:57:38;10.00;83.00
49413;DHT22;35493;50.276;9.372;2023-04-15T11:00:09;10.00;83.10
49413;DHT22;35493;50.276;9.372;2023-04-15T11:02:37;10.00;83.00
49413;DHT22;35493;50.276;9.372;2023-04-15T11:05:04;10.10;83.10
49413;DHT22;35493;50.276;9.372;2023-04-15T11:07:32;10.10;83.20
49413;DHT22;35493;50.276;9.372;2023-04-15T11:10:00;10.10;83.20
49413;DHT22;35493;50.276;9.372;2023-04-15T11:12:32;10.10;82.90
49413;DHT22;35493;50.276;9.372;2023-04-15T11:14:59;10.10;82.80
49413;DHT22;35493;50.276;9.372;2023-04-15T11:17:46;10.00;82.80
49413;DHT22;35493;50.276;9.372;2023-04-15T11:20:13;10.00;83.20
49413;DHT22;35493;50.276;9.372;2023-04-15T11:22:46;10.00;83.10
49413;DHT22;35493;50.276;9.372;2023-04-15T11:25:21;10.00;82.90
49413;DHT22;35493;50.276;9.372;2023-04-15T11:27:49;10.00;82.80
49413;DHT22;35493;50.276;9.372;2023-04-15T11:30:17;9.90;82.80
49413;DHT22;35493;50.276;9.372;2023-04-15T11:32:44;10.00;82.80
49413;DHT22;35493;50.276;9.372;2023-04-15T11:35:11;9.90;82.90
49413;DHT22;35493;50.276;9.372;2023-04-15T11:37:38;9.90;82.90
49413;DHT22;35493;50.276;9.372;2023-04-15T11:40:05;9.90;83.10
49413;DHT22;35493;50.276;9.372;2023-04-15T11:42:34;9.80;82.80
49413;DHT22;35493;50.276;9.372;2023-04-15T11:45:11;9.90;83.10
49413;DHT22;35493;50.276;9.372;2023-04-15T11:47:39;9.80;83.00
49413;DHT22;35493;50.276;9.372;2023-04-15T11:50:18;9.90;82.90
49413;DHT22;35493;50.276;9.372;2023-04-15T11:52:52;9.90;82.80
49413;DHT22;35493;50.276;9.372;2023-04-15T11:55:19;9.90;83.20
49413;DHT22;35493;50.276;9.372;2023-04-15T11:57:47;9.80;83.30
49413;DHT22;35493;50.276;9.372;2023-04-15T12:00:14;9.90;83.00
49413;DHT22;35493;50.276;9.372;2023-04-15T12:02:42;9.90;83.60
49413;DHT22;35493;50.276;9.372;2023-04-15T12:05:09;9.90;83.40
49413;DHT22;35493;50.276;9.372;2023-04-15T12:10:19;9.90;83.10
49413;DHT22;35493;50.276;9.372;2023-04-15T12:12:49;9.90;83.60
49413;DHT22;35493;50.276;9.372;2023-04-15T12:15:15;9.80;83.60
49413;DHT22;35493;50.276;9.372;2023-04-15T12:17:42;9.90;83.70
49413;DHT22;35493;50.276;9.372;2023-04-15T12:20:09;9.90;83.70
49413;DHT22;35493;50.276;9.372;2023-04-15T12:22:36;9.90;83.60
49413;DHT22;35493;50.276;9.372;2023-04-15T12:25:03;9.90;83.60
49413;DHT22;35493;50.276;9.372;2023-04-15T12:27:30;9.90;83.30
49413;DHT22;35493;50.276;9.372;2023-04-15T12:30:03;9.80;84.10
49413;DHT22;35493;50.276;9.372;2023-04-15T12:32:34;9.80;84.50
49413;DHT22;35493;50.276;9.372;2023-04-15T12:35:01;9.70;84.20
49413;DHT22;35493;50.276;9.372;2023-04-15T12:37:28;9.80;84.30
49413;DHT22;35493;50.276;9.372;2023-04-15T12:39:54;9.70;84.30
49413;DHT22;35493;50.276;9.372;2023-04-15T12:42:21;9.70;84.60
49413;DHT22;35493;50.276;9.372;2023-04-15T12:44:48;9.70;84.70
49413;DHT22;35493;50.276;9.372;2023-04-15T12:47:16;9.70;84.60
49413;DHT22;35493;50.276;9.372;2023-04-15T12:49:43;9.70;84.80
49413;DHT22;35493;50.276;9.372;2023-04-15T12:52:10;9.70;84.80
49413;DHT22;35493;50.276;9.372;2023-04-15T12:54:37;9.70;84.90
49413;DHT22;35493;50.276;9.372;2023-04-15T12:57:04;9.70;85.40
49413;DHT22;35493;50.276;9.372;2023-04-15T12:59:31;9.70;85.40
49413;DHT22;35493;50.276;9.372;2023-04-15T13:01:58;9.70;85.40
49413;DHT22;35493;50.276;9.372;2023-04-15T13:04:28;9.70;84.70
49413;DHT22;35493;50.276;9.372;2023-04-15T13:06:57;9.70;84.60
49413;DHT22;35493;50.276;9.372;2023-04-15T13:09:24;9.70;85.60
49413;DHT22;35493;50.276;9.372;2023-04-15T13:11:51;9.70;85.90
49413;DHT22;35493;50.276;9.372;2023-04-15T13:14:18;9.70;85.90
49413;DHT22;35493;50.276;9.372;2023-04-15T13:16:45;9.70;85.80
49413;DHT22;35493;50.276;9.372;2023-04-15T13:19:12;9.70;85.20
49413;DHT22;35493;50.276;9.372;2023-04-15T13:21:40;9.70;85.50
49413;DHT22;35493;50.276;9.372;2023-04-15T13:24:07;9.70;85.70
49413;DHT22;35493;50.276;9.372;2023-04-15T13:26:34;9.70;85.90
49413;DHT22;35493;50.276;9.372;2023-04-15T13:29:00;9.70;85.80
49413;DHT22;35493;50.276;9.372;2023-04-15T13:31:27;9.80;85.90
49413;DHT22;35493;50.276;9.372;2023-04-15T13:33:55;9.80;86.00
49413;DHT22;35493;50.276;9.372;2023-04-15T13:36:22;9.80;85.80
49413;DHT22;35493;50.276;9.372;2023-04-15T13:38:50;9.80;86.20
49413;DHT22;35493;50.276;9.372;2023-04-15T13:41:16;9.80;86.10
49413;DHT22;35493;50.276;9.372;2023-04-15T13:43:44;9.70;86.10
49413;DHT22;35493;50.276;9.372;2023-04-15T13:46:11;9.70;85.80
49413;DHT22;35493;50.276;9.372;2023-04-15T13:48:38;9.80;86.30
49413;DHT22;35493;50.276;9.372;2023-04-15T13:51:05;9.70;85.80
49413;DHT22;35493;50.276;9.372;2023-04-15T13:53:32;9.70;86.40
49413;DHT22;35493;50.276;9.372;2023-04-15T13:56:02;9.70;86.20
49413;DHT22;35493;50.276;9.372;2023-04-15T13:58:29;9.70;86.10
49413;DHT22;35493;50.276;9.372;2023-04-15T14:00:55;9.70;86.00
49413;DHT22;35493;50.276;9.372;2023-04-15T14:03:22;9.70;86.40
49413;DHT22;35493;50.276;9.372;2023-04-15T14:05:49;9.70;86.40
49413;DHT22;35493;50.276;9.372;2023-04-15T14:08:20;9.80;86.60
49413;DHT22;35493;50.276;9.372;2023-04-15T14:10:47;9.80;85.90
49413;DHT22;35493;50.276;9.372;2023-04-15T14:13:15;9.80;86.60
49413;DHT22;35493;50.276;9.372;2023-04-15T14:15:43;9.80;86.40
49413;DHT22;35493;50.276;9.372;2023-04-15T14:18:10;9.80;86.60
49413;DHT22;35493;50.276;9.372;2023-04-15T14:20:37;9.80;86.20
49413;DHT22;35493;50.276;9.372;2023-04-15T14:23:04;9.80;86.90
49413;DHT22;35493;50.276;9.372;2023-04-15T14:25:30;9.80;86.80
49413;DHT22;35493;50.276;9.372;2023-04-15T14:27:57;9.80;87.00
49413;DHT22;35493;50.276;9.372;2023-04-15T14:30:25;9.90;86.90
49413;DHT22;35493;50.276;9.372;2023-04-15T14:32:52;9.80;86.80
49413;DHT22;35493;50.276;9.372;2023-04-15T14:35:19;9.80;86.90
49413;DHT22;35493;50.276;9.372;2023-04-15T14:37:45;9.90;87.00
49413;DHT22;35493;50.276;9.372;2023-04-15T14:40:12;9.80;86.80
49413;DHT22;35493;50.276;9.372;2023-04-15T14:42:39;9.80;87.30
49413;DHT22;35493;50.276;9.372;2023-04-15T14:45:06;9.80;86.40
49413;DHT22;35493;50.276;9.372;2023-04-15T14:47:34;9.80;86.90
49413;DHT22;35493;50.276;9.372;2023-04-15T14:50:01;9.80;86.80
49413;DHT22;35493;50.276;9.372;2023-04-15T14:52:28;9.80;86.80
49413;DHT22;35493;50.276;9.372;2023-04-15T14:54:57;9.80;87.00
49413;DHT22;35493;50.276;9.372;2023-04-15T14:57:24;9.80;87.10
49413;DHT22;35493;50.276;9.372;2023-04-15T14:59:51;9.80;87.40
49413;DHT22;35493;50.276;9.372;2023-04-15T15:02:21;9.80;87.30
49413;DHT22;35493;50.276;9.372;2023-04-15T15:04:49;9.80;87.30
49413;DHT22;35493;50.276;9.372;2023-04-15T15:07:15;9.80;87.20
49413;DHT22;35493;50.276;9.372;2023-04-15T15:09:42;9.80;87.10
49413;DHT22;35493;50.276;9.372;2023-04-15T15:12:20;9.90;87.30
49413;DHT22;35493;50.276;9.372;2023-04-15T15:14:48;9.80;87.40
49413;DHT22;35493;50.276;9.372;2023-04-15T15:17:14;9.80;87.20
49413;DHT22;35493;50.276;9.372;2023-04-15T15:19:41;9.90;87.10
49413;DHT22;35493;50.276;9.372;2023-04-15T15:22:09;9.90;87.60
49413;DHT22;35493;50.276;9.372;2023-04-15T15:24:36;9.80;87.60
49413;DHT22;35493;50.276;9.372;2023-04-15T15:27:03;9.80;87.70
49413;DHT22;35493;50.276;9.372;2023-04-15T15:29:30;9.80;87.80
49413;DHT22;35493;50.276;9.372;2023-04-15T15:31:56;9.80;87.60
49413;DHT22;35493;50.276;9.372;2023-04-15T15:34:23;9.80;87.40
49413;DHT22;35493;50.276;9.372;2023-04-15T15:36:50;9.80;87.90
49413;DHT22;35493;50.276;9.372;2023-04-15T15:39:18;9.70;87.90
49413;DHT22;35493;50.276;9.372;2023-04-15T15:41:54;9.70;88.10
49413;DHT22;35493;50.276;9.372;2023-04-15T15:44:20;9.70;88.10
49413;DHT22;35493;50.276;9.372;2023-04-15T15:46:48;9.70;88.10
49413;DHT22;35493;50.276;9.372;2023-04-15T15:49:15;9.70;88.00
49413;DHT22;35493;50.276;9.372;2023-04-15T15:51:42;9.70;87.90
49413;DHT22;35493;50.276;9.372;2023-04-15T15:54:10;9.70;87.90